sensor_id;sensor_type;location;lat;lon;timestamp;temperature;humidity
19385;DHT22;9828;54.122;17.974;2023-03-01T00:02:14;1.30;99.90
19385;DHT22;9828;54.122;17.974;2023-03-01T00:07:35;1.30;99.90
19385;DHT22;9828;54.122;17.974;2023-03-01T00:12:57;1.30;99.90
19385;DHT22;9828;54.122;17.974;2023-03-01T00:18:18;1.20;99.90
19385;DHT22;9828;54.122;17.974;2023-03-01T00:23:39;1.10;99.90
19385;DHT22;9828;54.122;17.974;2023-03-01T00:29:01;1.10;99.90
19385;DHT22;9828;54.122;17.974;2023-03-01T00:34:22;1.10;99.90
19385;DHT22;9828;54.122;17.974;2023-03-01T00:39:46;1.20;99.90
19385;DHT22;9828;54.122;17.974;2023-03-01T00:45:09;1.20;99.90
19385;DHT22;9828;54.122;17.974;2023-03-01T00:50:30;1.30;99.90
19385;DHT22;9828;54.122;17.974;2023-03-01T00:55:51;1.40;99.90
19385;DHT22;9828;54.122;17.974;2023-03-01T01:01:16;1.40;99.90
19385;DHT22;9828;54.122;17.974;2023-03-01T01:06:45;1.40;99.90
19385;DHT22;9828;54.122;17.974;2023-03-01T01:12:07;1.30;99.90
19385;DHT22;9828;54.122;17.974;2023-03-01T01:17:28;1.30;99.90
19385;DHT22;9828;54.122;17.974;2023-03-01T01:28:48;1.20;99.90
19385;DHT22;9828;54.122;17.974;2023-03-01T01:34:16;1.10;99.90
19385;DHT22;9828;54.122;17.974;2023-03-01T01:39:37;1.00;99.90
19385;DHT22;9828;54.122;17.974;2023-03-01T01:50:52;1.10;99.90
19385;DHT22;9828;54.122;17.974;2023-03-01T01:56:17;1.10;99.90
19385;DHT22;9828;54.122;17.974;2023-03-01T02:01:39;1.20;99.90
19385;DHT22;9828;54.122;17.974;2023-03-01T02:07:13;1.10;99.90
19385;DHT22;9828;54.122;17.974;2023-03-01T02:12:36;1.10;99.90
19385;DHT22;9828;54.122;17.974;2023-03-01T02:17:59;1.10;99.90
19385;DHT22;9828;54.122;17.974;2023-03-01T02:23:20;1.10;99.90
19385;DHT22;9828;54.122;17.974;2023-03-01T02:28:43;1.20;99.90
19385;DHT22;9828;54.122;17.974;2023-03-01T02:34:06;1.20;99.90
19385;DHT22;9828;54.122;17.974;2023-03-01T02:39:32;1.20;99.90
19385;DHT22;9828;54.122;17.974;2023-03-01T02:44:54;1.20;99.90
19385;DHT22;9828;54.122;17.974;2023-03-01T02:50:44;1.20;99.90
19385;DHT22;9828;54.122;17.974;2023-03-01T02:56:01;1.20;99.90
19385;DHT22;9828;54.122;17.974;2023-03-01T03:01:23;1.30;99.90
19385;DHT22;9828;54.122;17.974;2023-03-01T03:06:58;1.30;99.90
19385;DHT22;9828;54.122;17.974;2023-03-01T03:12:19;1.30;99.90
19385;DHT22;9828;54.122;17.974;2023-03-01T03:17:42;1.30;99.90
19385;DHT22;9828;54.122;17.974;2023-03-01T03:23:05;1.50;99.90
19385;DHT22;9828;54.122;17.974;2023-03-01T03:28:28;1.60;99.90
19385;DHT22;9828;54.122;17.974;2023-03-01T03:33:49;1.70;99.90
19385;DHT22;9828;54.122;17.974;2023-03-01T03:39:10;1.80;99.90
19385;DHT22;9828;54.122;17.974;2023-03-01T03:44:32;1.80;99.90
19385;DHT22;9828;54.122;17.974;2023-03-01T03:49:53;1.90;99.90
19385;DHT22;9828;54.122;17.974;2023-03-01T03:55:14;2.00;99.90
19385;DHT22;9828;54.122;17.974;2023-03-01T04:00:42;2.00;99.90
19385;DHT22;9828;54.122;17.974;2023-03-01T04:06:04;1.90;99.90
19385;DHT22;9828;54.122;17.974;2023-03-01T04:11:26;1.90;99.90
19385;DHT22;9828;54.122;17.974;2023-03-01T04:16:47;1.90;99.90
19385;DHT22;9828;54.122;17.974;2023-03-01T04:22:09;1.90;99.90
19385;DHT22;9828;54.122;17.974;2023-03-01T04:27:33;1.90;99.90
19385;DHT22;9828;54.122;17.974;2023-03-01T04:32:54;2.00;99.90
19385;DHT22;9828;54.122;17.974;2023-03-01T04:38:19;2.00;99.90
19385;DHT22;9828;54.122;17.974;2023-03-01T04:43:42;2.00;99.90
19385;DHT22;9828;54.122;17.974;2023-03-01T04:49:03;2.00;99.90
19385;DHT22;9828;54.122;17.974;2023-03-01T04:54:24;2.10;99.90
19385;DHT22;9828;54.122;17.974;2023-03-01T04:59:46;2.00;99.90
19385;DHT22;9828;54.122;17.974;2023-03-01T05:05:07;2.10;99.90
19385;DHT22;9828;54.122;17.974;2023-03-01T05:10:30;2.10;99.90
19385;DHT22;9828;54.122;17.974;2023-03-01T05:16:00;2.10;99.90
19385;DHT22;9828;54.122;17.974;2023-03-01T05:21:22;2.10;99.90
19385;DHT22;9828;54.122;17.974;2023-03-01T05:26:44;2.00;99.90
19385;DHT22;9828;54.122;17.974;2023-03-01T05:32:14;2.00;99.90
19385;DHT22;9828;54.122;17.974;2023-03-01T05:37:36;2.00;99.90
19385;DHT22;9828;54.122;17.974;2023-03-01T05:42:58;1.90;99.90
19385;DHT22;9828;54.122;17.974;2023-03-01T05:48:19;2.00;99.90
19385;DHT22;9828;54.122;17.974;2023-03-01T05:53:40;1.90;99.90
19385;DHT22;9828;54.122;17.974;2023-03-01T05:59:03;1.90;99.90
19385;DHT22;9828;54.122;17.974;2023-03-01T06:04:25;1.90;99.90
19385;DHT22;9828;54.122;17.974;2023-03-01T06:09:47;2.00;99.90
19385;DHT22;9828;54.122;17.974;2023-03-01T06:15:09;1.90;99.90
19385;DHT22;9828;54.122;17.974;2023-03-01T06:20:31;1.90;99.90
19385;DHT22;9828;54.122;17.974;2023-03-01T06:25:53;1.90;99.90
19385;DHT22;9828;54.122;17.974;2023-03-01T06:31:14;2.00;99.90
19385;DHT22;9828;54.122;17.974;2023-03-01T06:36:35;2.00;99.90
19385;DHT22;9828;54.122;17.974;2023-03-01T06:41:56;2.10;99.90
19385;DHT22;9828;54.122;17.974;2023-03-01T06:47:18;2.00;99.90
19385;DHT22;9828;54.122;17.974;2023-03-01T06:52:39;2.00;99.90
19385;DHT22;9828;54.122;17.974;2023-03-01T06:58:02;2.00;99.90
19385;DHT22;9828;54.122;17.974;2023-03-01T07:03:24;2.00;99.90
19385;DHT22;9828;54.122;17.974;2023-03-01T07:08:45;2.10;99.90
19385;DHT22;9828;54.122;17.974;2023-03-01T07:14:07;2.20;99.90
19385;DHT22;9828;54.122;17.974;2023-03-01T07:19:28;2.20;99.90
19385;DHT22;9828;54.122;17.974;2023-03-01T07:24:50;2.10;99.90
19385;DHT22;9828;54.122;17.974;2023-03-01T07:30:11;2.00;99.90
19385;DHT22;9828;54.122;17.974;2023-03-01T07:35:32;2.10;99.90
19385;DHT22;9828;54.122;17.974;2023-03-01T07:40:59;2.20;99.90
19385;DHT22;9828;54.122;17.974;2023-03-01T07:46:20;2.20;99.90
19385;DHT22;9828;54.122;17.974;2023-03-01T07:51:43;2.30;99.90
19385;DHT22;9828;54.122;17.974;2023-03-01T07:57:04;2.50;99.90
19385;DHT22;9828;54.122;17.974;2023-03-01T08:02:26;2.60;99.90
19385;DHT22;9828;54.122;17.974;2023-03-01T08:07:47;2.60;99.90
19385;DHT22;9828;54.122;17.974;2023-03-01T08:13:09;2.80;99.90
19385;DHT22;9828;54.122;17.974;2023-03-01T08:18:30;2.80;99.90
19385;DHT22;9828;54.122;17.974;2023-03-01T08:23:52;2.90;99.90
19385;DHT22;9828;54.122;17.974;2023-03-01T08:29:13;3.00;99.90
19385;DHT22;9828;54.122;17.974;2023-03-01T08:34:34;3.00;99.90
19385;DHT22;9828;54.122;17.974;2023-03-01T08:39:56;3.10;99.90
19385;DHT22;9828;54.122;17.974;2023-03-01T08:45:18;3.10;99.90
19385;DHT22;9828;54.122;17.974;2023-03-01T08:50:40;3.20;99.90
19385;DHT22;9828;54.122;17.974;2023-03-01T08:56:02;3.40;99.90
19385;DHT22;9828;54.122;17.974;2023-03-01T09:01:24;3.50;99.90
19385;DHT22;9828;54.122;17.974;2023-03-01T09:06:45;3.60;99.90
19385;DHT22;9828;54.122;17.974;2023-03-01T09:12:42;3.50;99.90
19385;DHT22;9828;54.122;17.974;2023-03-01T09:18:32;3.50;99.90
19385;DHT22;9828;54.122;17.974;2023-03-01T09:23:56;3.60;99.90
19385;DHT22;9828;54.122;17.974;2023-03-01T09:29:23;3.80;99.90
19385;DHT22;9828;54.122;17.974;2023-03-01T09:34:46;3.90;99.90
19385;DHT22;9828;54.122;17.974;2023-03-01T09:40:28;3.90;99.90
19385;DHT22;9828;54.122;17.974;2023-03-01T09:45:53;3.80;99.90
19385;DHT22;9828;54.122;17.974;2023-03-01T09:51:31;3.80;99.90
19385;DHT22;9828;54.122;17.974;2023-03-01T09:57:33;3.80;99.90
19385;DHT22;9828;54.122;17.974;2023-03-01T10:15:12;4.10;99.90
19385;DHT22;9828;54.122;17.974;2023-03-01T10:20:57;4.30;99.90
19385;DHT22;9828;54.122;17.974;2023-03-01T10:26:29;4.30;99.90
19385;DHT22;9828;54.122;17.974;2023-03-01T10:31:57;4.40;99.90
19385;DHT22;9828;54.122;17.974;2023-03-01T10:37:23;4.30;99.90
19385;DHT22;9828;54.122;17.974;2023-03-01T10:42:48;4.20;99.90
19385;DHT22;9828;54.122;17.974;2023-03-01T10:48:24;4.20;99.90
19385;DHT22;9828;54.122;17.974;2023-03-01T10:53:50;4.30;99.90
19385;DHT22;9828;54.122;17.974;2023-03-01T11:00:13;4.20;99.90
19385;DHT22;9828;54.122;17.974;2023-03-01T11:10:36;4.20;99.90
19385;DHT22;9828;54.122;17.974;2023-03-01T11:16:11;4.30;99.90
19385;DHT22;9828;54.122;17.974;2023-03-01T11:21:39;4.30;99.90
19385;DHT22;9828;54.122;17.974;2023-03-01T11:27:35;4.30;99.90
19385;DHT22;9828;54.122;17.974;2023-03-01T11:34:08;4.50;99.90
19385;DHT22;9828;54.122;17.974;2023-03-01T11:44:54;4.70;99.90
19385;DHT22;9828;54.122;17.974;2023-03-01T12:07:15;4.90;99.90
19385;DHT22;9828;54.122;17.974;2023-03-01T12:18:27;5.10;99.90
19385;DHT22;9828;54.122;17.974;2023-03-01T12:29:24;5.40;99.90
19385;DHT22;9828;54.122;17.974;2023-03-01T12:41:01;5.60;99.90
19385;DHT22;9828;54.122;17.974;2023-03-01T12:46:39;5.70;99.90
19385;DHT22;9828;54.122;17.974;2023-03-01T12:52:35;5.70;99.90
19385;DHT22;9828;54.122;17.974;2023-03-01T13:09:43;5.80;99.90
19385;DHT22;9828;54.122;17.974;2023-03-01T13:15:36;5.60;99.90
19385;DHT22;9828;54.122;17.974;2023-03-01T13:20:59;5.50;99.90
19385;DHT22;9828;54.122;17.974;2023-03-01T13:26:21;5.40;99.90
19385;DHT22;9828;54.122;17.974;2023-03-01T13:31:56;5.30;99.90
19385;DHT22;9828;54.122;17.974;2023-03-01T13:37:32;5.30;99.90
19385;DHT22;9828;54.122;17.974;2023-03-01T13:42:54;5.30;99.90
19385;DHT22;9828;54.122;17.974;2023-03-01T13:48:29;5.40;99.90
19385;DHT22;9828;54.122;17.974;2023-03-01T13:53:53;5.40;99.90
19385;DHT22;9828;54.122;17.974;2023-03-01T13:59:20;5.40;99.90
19385;DHT22;9828;54.122;17.974;2023-03-01T14:04:42;5.30;99.90
19385;DHT22;9828;54.122;17.974;2023-03-01T14:10:05;5.30;99.90
19385;DHT22;9828;54.122;17.974;2023-03-01T14:15:36;5.20;99.90
19385;DHT22;9828;54.122;17.974;2023-03-01T14:20:59;5.20;99.90
19385;DHT22;9828;54.122;17.974;2023-03-01T14:26:21;5.20;99.90
19385;DHT22;9828;54.122;17.974;2023-03-01T14:31:43;5.20;99.90
19385;DHT22;9828;54.122;17.974;2023-03-01T14:37:33;5.10;99.90
19385;DHT22;9828;54.122;17.974;2023-03-01T14:42:57;5.20;99.90
19385;DHT22;9828;54.122;17.974;2023-03-01T14:48:19;5.20;99.90
19385;DHT22;9828;54.122;17.974;2023-03-01T14:53:42;5.10;99.90
19385;DHT22;9828;54.122;17.974;2023-03-01T14:59:11;5.10;99.90
19385;DHT22;9828;54.122;17.974;2023-03-01T15:04:32;5.10;99.90
19385;DHT22;9828;54.122;17.974;2023-03-01T15:09:55;5.00;99.90
19385;DHT22;9828;54.122;17.974;2023-03-01T15:15:45;4.90;99.90
19385;DHT22;9828;54.122;17.974;2023-03-01T15:21:19;4.90;99.90
19385;DHT22;9828;54.122;17.974;2023-03-01T15:26:42;4.90;99.90
19385;DHT22;9828;54.122;17.974;2023-03-01T15:32:23;5.00;99.90
19385;DHT22;9828;54.122;17.974;2023-03-01T15:37:47;5.00;99.90
19385;DHT22;9828;54.122;17.974;2023-03-01T15:43:43;4.90;99.90
19385;DHT22;9828;54.122;17.974;2023-03-01T15:50:03;4.90;99.90
19385;DHT22;9828;54.122;17.974;2023-03-01T15:55:20;4.90;99.90
19385;DHT22;9828;54.122;17.974;2023-03-01T16:00:43;4.80;99.90
19385;DHT22;9828;54.122;17.974;2023-03-01T16:06:20;4.70;99.90
19385;DHT22;9828;54.122;17.974;2023-03-01T16:11:41;4.50;99.90
19385;DHT22;9828;54.122;17.974;2023-03-01T16:17:03;4.40;99.90
19385;DHT22;9828;54.122;17.974;2023-03-01T16:22:25;4.30;99.90
19385;DHT22;9828;54.122;17.974;2023-03-01T16:27:49;4.20;99.90
19385;DHT22;9828;54.122;17.974;2023-03-01T16:33:11;4.10;99.90
19385;DHT22;9828;54.122;17.974;2023-03-01T16:38:44;4.00;99.90
19385;DHT22;9828;54.122;17.974;2023-03-01T16:44:09;3.90;99.90
19385;DHT22;9828;54.122;17.974;2023-03-01T16:49:30;3.80;99.90
19385;DHT22;9828;54.122;17.974;2023-03-01T16:54:51;3.70;99.90
19385;DHT22;9828;54.122;17.974;2023-03-01T17:00:13;3.70;99.90
19385;DHT22;9828;54.122;17.974;2023-03-01T17:05:39;3.70;99.90
19385;DHT22;9828;54.122;17.974;2023-03-01T17:11:12;3.70;99.90
19385;DHT22;9828;54.122;17.974;2023-03-01T17:16:34;3.50;99.90
19385;DHT22;9828;54.122;17.974;2023-03-01T17:21:56;3.50;99.90
19385;DHT22;9828;54.122;17.974;2023-03-01T17:27:17;3.50;99.90
19385;DHT22;9828;54.122;17.974;2023-03-01T17:32:39;3.40;99.90
19385;DHT22;9828;54.122;17.974;2023-03-01T17:38:01;3.30;99.90
19385;DHT22;9828;54.122;17.974;2023-03-01T17:43:22;3.30;99.90
19385;DHT22;9828;54.122;17.974;2023-03-01T17:48:43;3.20;99.90
19385;DHT22;9828;54.122;17.974;2023-03-01T17:54:05;3.20;99.90
19385;DHT22;9828;54.122;17.974;2023-03-01T17:59:26;3.10;99.90
19385;DHT22;9828;54.122;17.974;2023-03-01T18:04:51;3.10;99.90
19385;DHT22;9828;54.122;17.974;2023-03-01T18:10:13;3.00;99.90
19385;DHT22;9828;54.122;17.974;2023-03-01T18:15:34;3.00;99.90
19385;DHT22;9828;54.122;17.974;2023-03-01T18:20:57;2.90;99.90
19385;DHT22;9828;54.122;17.974;2023-03-01T18:26:19;2.80;99.90
19385;DHT22;9828;54.122;17.974;2023-03-01T18:31:42;2.60;99.90
19385;DHT22;9828;54.122;17.974;2023-03-01T18:37:03;2.50;99.90
19385;DHT22;9828;54.122;17.974;2023-03-01T18:42:31;2.60;99.90
19385;DHT22;9828;54.122;17.974;2023-03-01T18:47:52;2.60;99.90
19385;DHT22;9828;54.122;17.974;2023-03-01T18:53:14;2.80;99.90
19385;DHT22;9828;54.122;17.974;2023-03-01T18:58:35;2.80;99.90
19385;DHT22;9828;54.122;17.974;2023-03-01T19:03:58;2.90;99.90
19385;DHT22;9828;54.122;17.974;2023-03-01T19:09:19;2.90;99.90
19385;DHT22;9828;54.122;17.974;2023-03-01T19:14:40;2.90;99.90
19385;DHT22;9828;54.122;17.974;2023-03-01T19:20:02;3.00;99.90
19385;DHT22;9828;54.122;17.974;2023-03-01T19:25:23;3.10;99.90
19385;DHT22;9828;54.122;17.974;2023-03-01T19:30:45;3.10;99.90
19385;DHT22;9828;54.122;17.974;2023-03-01T19:36:11;3.10;99.90
19385;DHT22;9828;54.122;17.974;2023-03-01T19:41:32;3.00;99.90
19385;DHT22;9828;54.122;17.974;2023-03-01T19:46:55;3.00;99.90
19385;DHT22;9828;54.122;17.974;2023-03-01T19:52:17;3.00;99.90
19385;DHT22;9828;54.122;17.974;2023-03-01T19:57:38;3.10;99.90
19385;DHT22;9828;54.122;17.974;2023-03-01T20:03:00;3.00;99.90
19385;DHT22;9828;54.122;17.974;2023-03-01T20:08:22;3.10;99.90
19385;DHT22;9828;54.122;17.974;2023-03-01T20:13:44;3.10;99.90
19385;DHT22;9828;54.122;17.974;2023-03-01T20:19:05;3.10;99.90
19385;DHT22;9828;54.122;17.974;2023-03-01T20:24:27;3.00;99.90
19385;DHT22;9828;54.122;17.974;2023-03-01T20:29:48;2.90;99.90
19385;DHT22;9828;54.122;17.974;2023-03-01T20:35:10;2.70;99.90
19385;DHT22;9828;54.122;17.974;2023-03-01T20:40:31;2.60;99.90
19385;DHT22;9828;54.122;17.974;2023-03-01T20:45:53;2.50;99.90
19385;DHT22;9828;54.122;17.974;2023-03-01T20:51:14;2.50;99.90
19385;DHT22;9828;54.122;17.974;2023-03-01T20:56:35;2.50;99.90
19385;DHT22;9828;54.122;17.974;2023-03-01T21:01:57;2.60;99.90
19385;DHT22;9828;54.122;17.974;2023-03-01T21:07:18;2.50;99.90
19385;DHT22;9828;54.122;17.974;2023-03-01T21:12:39;2.60;99.90
19385;DHT22;9828;54.122;17.974;2023-03-01T21:18:01;2.60;99.90
19385;DHT22;9828;54.122;17.974;2023-03-01T21:23:22;2.40;99.90
19385;DHT22;9828;54.122;17.974;2023-03-01T21:28:49;2.40;99.90
19385;DHT22;9828;54.122;17.974;2023-03-01T21:34:12;2.40;99.90
19385;DHT22;9828;54.122;17.974;2023-03-01T21:39:36;2.40;99.90
19385;DHT22;9828;54.122;17.974;2023-03-01T21:44:58;2.40;99.90
19385;DHT22;9828;54.122;17.974;2023-03-01T21:50:21;2.40;99.90
19385;DHT22;9828;54.122;17.974;2023-03-01T21:55:47;2.40;99.90
19385;DHT22;9828;54.122;17.974;2023-03-01T22:01:14;2.40;99.90
19385;DHT22;9828;54.122;17.974;2023-03-01T22:06:38;2.40;99.90
19385;DHT22;9828;54.122;17.974;2023-03-01T22:12:09;2.50;99.90
19385;DHT22;9828;54.122;17.974;2023-03-01T22:17:44;2.40;99.90
19385;DHT22;9828;54.122;17.974;2023-03-01T22:23:07;2.40;99.90
19385;DHT22;9828;54.122;17.974;2023-03-01T22:28:31;2.50;99.90
19385;DHT22;9828;54.122;17.974;2023-03-01T22:33:53;2.50;99.90
19385;DHT22;9828;54.122;17.974;2023-03-01T22:39:18;2.50;99.90
19385;DHT22;9828;54.122;17.974;2023-03-01T22:44:54;2.50;99.90
19385;DHT22;9828;54.122;17.974;2023-03-01T22:50:15;2.50;99.90
19385;DHT22;9828;54.122;17.974;2023-03-01T22:55:37;2.50;99.90
19385;DHT22;9828;54.122;17.974;2023-03-01T23:00:58;2.40;99.90
19385;DHT22;9828;54.122;17.974;2023-03-01T23:06:20;2.30;99.90
19385;DHT22;9828;54.122;17.974;2023-03-01T23:11:43;2.30;99.90
19385;DHT22;9828;54.122;17.974;2023-03-01T23:17:04;2.30;99.90
19385;DHT22;9828;54.122;17.974;2023-03-01T23:22:29;2.30;99.90
19385;DHT22;9828;54.122;17.974;2023-03-01T23:27:50;2.30;99.90
19385;DHT22;9828;54.122;17.974;2023-03-01T23:33:13;2.30;99.90
19385;DHT22;9828;54.122;17.974;2023-03-01T23:38:34;2.30;99.90
19385;DHT22;9828;54.122;17.974;2023-03-01T23:43:58;2.40;99.90
19385;DHT22;9828;54.122;17.974;2023-03-01T23:49:20;2.30;99.90
19385;DHT22;9828;54.122;17.974;2023-03-01T23:54:42;2.30;99.90
